Tiempo atmosférico en la estación meteorológica de Salas, Asturias (240 m.)



Fecha
DESCASC
Temp. máxima en grados centígrados (hora)
DESCASC
Temp. mínima en grados centígrados (hora)
DESCASC
Temp. media en grados centígrados
DESCASC
Racha de viento máxima en m/sg (hora)
DESCASC
Velocidad máxima media en intervalos de 10 minutos(hora)
DESCASC
Precipitaciones diarias en mm
DESCASC
Precipitaciones de 00:00 a 06:00 en mm
DESCASC
Precipitaciones de 06:00 a 12:00 en mm
DESCASC
Precipitaciones de 12:00 a 18:00 en mm
DESCASC
Precipitaciones de 18:00 a 24:00 en mm
DESCASC

Gráficas

Temp. máximas Temp. mínimas Temp. medias Precipitaciones Rachas de viento máximas Velocidades máximas media en intervalos de 10 minutos

Datos horarios

Fecha y hora oficial Temperatura (ºC) Velocidad del viento (km/h) Dirección del viento Racha (km/h) Dirección de racha Precipitación (mm) Presión (hPa) Tendencia (hPa) Humedad (%)
2020-01-23 23:00:00 5.2 0 Calma 3 Noroeste 0 -- -- 93
2020-01-23 22:00:00 5.7 0 Calma 4 Oeste 0 -- -- 91
2020-01-23 21:00:00 5.7 0 Calma 6 Oeste 0 -- -- 92
2020-01-23 20:00:00 6 2 Nordeste 8 Oeste 0 -- -- 94
2020-01-23 19:00:00 7.3 0 Calma 4 Norte 0 -- -- 91
2020-01-23 18:00:00 8.9 0 Calma 11 Noroeste 0 -- -- 85
2020-01-23 17:00:00 10.4 6 Norte 15 Nordeste 0 -- -- 77
2020-01-23 16:00:00 12.1 5 Oeste 12 Nordeste 0 -- -- 71
2020-01-23 15:00:00 12.1 4 Sudeste 13 Sudeste 0 -- -- 73
2020-01-23 14:00:00 11 4 Sur 13 Nordeste 0 -- -- 80
2020-01-23 13:00:00 9.1 3 Sudoeste 9 Sur 0 -- -- 83
2020-01-23 12:00:00 6.7 0 Calma 13 Sudoeste 0 -- -- 90
2020-01-23 11:00:00 5 4 Sudoeste 8 Sudoeste 0 -- -- 96
2020-01-23 10:00:00 2.7 0 Calma 4 Sur 0 -- -- 100
2020-01-23 09:00:00 1.8 2 Noroeste 5 Nordeste 0 -- -- 100
2020-01-23 08:00:00 1.9 0 Calma 5 Norte 0 -- -- 100
2020-01-23 07:00:00 2.8 2 Noroeste 7 Nordeste 0 -- -- 99
2020-01-23 06:00:00 3.5 3 Oeste 7 Oeste 0 -- -- 99
2020-01-23 05:00:00 4.3 0 Calma 6 Oeste 0 -- -- 98
2020-01-23 04:00:00 5.5 5 Sur 14 Sudoeste 0 -- -- 98
2020-01-23 03:00:00 6.3 0 Calma 4 Sur 0 -- -- 100
2020-01-23 02:00:00 6.4 0 Calma 5 Nordeste 0 -- -- 99
2020-01-23 01:00:00 6.5 3 Norte 6 Nordeste 0 -- -- 100
2020-01-23 00:00:00 6.5 3 Nordeste 8 Oeste 0 -- -- 100
2020-01-22 23:00:00 6.5 2 Norte 4 Sur 0 -- -- 100
2020-01-22 22:00:00 6.3 5 Nordeste 9 Oeste 0 -- -- 100
2020-01-22 21:00:00 6.8 3 Noroeste 6 Sudeste 0.2 -- -- 99
2020-01-22 20:00:00 7 0 Calma 6 Sudoeste 1 -- -- 99
2020-01-22 19:00:00 7.5 0 Calma 3 Nordeste 2.4 -- -- 98
2020-01-22 18:00:00 8.2 0 Calma 4 Oeste 2.2 -- -- 97
2020-01-22 17:00:00 8.5 3 Norte 6 Noroeste 0.2 -- -- 93
2020-01-22 16:00:00 8.5 2 Noroeste 10 Nordeste 1.2 -- -- 95
2020-01-22 15:00:00 8 3 Nordeste 13 Nordeste 1.4 -- -- 95
2020-01-22 14:00:00 7.9 7 Nordeste 14 Nordeste 2 -- -- 95
2020-01-22 13:00:00 8.3 8 Nordeste 18 Norte 1.4 -- -- 95
2020-01-22 12:00:00 8.4 13 Norte 20 Norte 0.2 -- -- 95
2020-01-22 11:00:00 8.5 13 Nordeste 24 Norte 0.2 -- -- 94
2020-01-22 10:00:00 8.3 12 Norte 28 Este 0.4 -- -- 94
2020-01-22 09:00:00 8.6 16 Nordeste 30 Nordeste 0 -- -- 91
2020-01-22 08:00:00 8.6 17 Nordeste 33 Este 0.4 -- -- 95
2020-01-22 07:00:00 8.4 15 Nordeste 33 Nordeste 0 -- -- 96
2020-01-22 06:00:00 8.1 13 Nordeste 28 Este 0.4 -- -- 97
2020-01-22 05:00:00 7.1 10 Nordeste 24 Nordeste 0.2 -- -- 100
2020-01-22 04:00:00 6.1 3 Sudeste 18 Nordeste 0 -- -- 99
2020-01-22 03:00:00 5.6 0 Calma 6 Nordeste 0 -- -- 99
2020-01-22 02:00:00 5.4 0 Calma 4 Oeste 0 -- -- 98
2020-01-22 01:00:00 5.5 2 Oeste 6 Este 0.2 -- -- 97
2020-01-22 00:00:00 5.5 3 Nordeste 7 Norte 0.2 -- -- 94
2020-01-21 23:00:00 5.5 0 Calma 8 Este 0 -- -- 92
2020-01-21 22:00:00 6 4 Nordeste 19 Nordeste 0 -- -- 87
2020-01-21 21:00:00 6.3 13 Nordeste 20 Nordeste 0 -- -- 85
2020-01-21 20:00:00 6.2 11 Nordeste 27 Nordeste 0 -- -- 85
2020-01-21 19:00:00 6.2 14 Nordeste 25 Nordeste 0 -- -- 87
2020-01-21 18:00:00 6.2 15 Nordeste 29 Nordeste 0 -- -- 90
2020-01-21 17:00:00 5.9 11 Nordeste 23 Nordeste 0.2 -- -- 94
2020-01-21 16:00:00 5.7 12 Nordeste 32 Nordeste 0.8 -- -- 92
2020-01-21 15:00:00 5.8 10 Nordeste 27 Norte 0.8 -- -- 94
2020-01-21 14:00:00 5.7 12 Nordeste 27 Nordeste 1.4 -- -- 95
2020-01-21 13:00:00 5.5 9 Nordeste 18 Nordeste 0.8 -- -- 96
2020-01-21 12:00:00 5.1 2 Sudoeste 14 Nordeste 1 -- -- 97
2020-01-21 11:00:00 5.2 10 Norte 22 Nordeste 1 -- -- 93
2020-01-21 10:00:00 4.6 2 Oeste 5 Nordeste 0 -- -- 95
2020-01-21 09:00:00 4.5 0 Calma 10 Nordeste 0 -- -- 94
2020-01-21 08:00:00 4.7 2 Nordeste 17 Nordeste 0 -- -- 93
2020-01-21 07:00:00 5.1 7 Nordeste 19 Nordeste 0.2 -- -- 91
2020-01-21 06:00:00 5 10 Nordeste 21 Nordeste 0 -- -- 90
2020-01-21 05:00:00 5 12 Nordeste 23 Nordeste 0.2 -- -- 88
2020-01-21 04:00:00 4.8 10 Nordeste 18 Nordeste 0 -- -- 86
2020-01-21 03:00:00 4.5 5 Nordeste 15 Nordeste 0 -- -- 87
2020-01-21 02:00:00 4.4 6 Nordeste 14 Nordeste 0 -- -- 86
2020-01-21 01:00:00 4.6 4 Este 13 Este 0 -- -- 84
2020-01-21 00:00:00 4.9 5 Sudeste 19 Sudeste 0 -- -- 79
2020-01-20 23:00:00 5.2 5 Este 23 Nordeste 0 -- -- 72
2020-01-20 22:00:00 5.2 12 Nordeste 21 Nordeste 0 -- -- 72
2020-01-20 21:00:00 5.2 12 Nordeste 20 Este 0 -- -- 73
2020-01-20 20:00:00 5.1 9 Nordeste 26 Nordeste 0 -- -- 76
2020-01-20 19:00:00 4.7 10 Nordeste 25 Nordeste 0 -- -- 77
2020-01-20 18:00:00 4.9 14 Nordeste 31 Nordeste 0 -- -- 76
2020-01-20 17:00:00 6.1 10 Este 32 Nordeste 0 -- -- 74
2020-01-20 16:00:00 6.2 19 Nordeste 43 Nordeste 0 -- -- 73
2020-01-20 15:00:00 6.4 12 Este 23 Este 0 -- -- 75
2020-01-20 14:00:00 6.6 10 Sudeste 28 Nordeste 0 -- -- 84
2020-01-20 13:00:00 5.1 12 Nordeste 38 Nordeste 0.2 -- -- 88
2020-01-20 12:00:00 4.9 26 Nordeste 55 Este 0.6 -- -- 88
2020-01-20 11:00:00 6.1 24 Nordeste 41 Nordeste 0 -- -- 75
2020-01-20 10:00:00 5.4 16 Nordeste 34 Norte 0 -- -- 73
2020-01-20 09:00:00 4.7 21 Nordeste 46 Nordeste 0 -- -- 76
2020-01-20 08:00:00 4.9 14 Nordeste 40 Nordeste 0 -- -- 77
2020-01-20 07:00:00 5.2 17 Este 36 Nordeste 0 -- -- 80
2020-01-20 06:00:00 5.3 17 Nordeste 31 Norte 0 -- -- 78
2020-01-20 05:00:00 5.3 18 Nordeste 43 Este 0 -- -- 78
2020-01-20 04:00:00 5.1 16 Nordeste 39 Este 0 -- -- 79
2020-01-20 03:00:00 5.2 19 Nordeste 44 Nordeste 0.4 -- -- 85
2020-01-20 02:00:00 5 20 Nordeste 46 Este 0.6 -- -- 89
2020-01-20 01:00:00 5.6 17 Nordeste 36 Nordeste 0.2 -- -- 80
2020-01-20 00:00:00 5.2 18 Nordeste 48 Nordeste 0.4 -- -- 85
2020-01-19 23:00:00 5.9 20 Este 44 Nordeste 0.4 -- -- 82
2020-01-19 22:00:00 6.2 19 Nordeste 36 Nordeste 0.2 -- -- 76
2020-01-19 21:00:00 6.2 18 Nordeste 28 Nordeste 0 -- -- 74
2020-01-19 20:00:00 5.9 14 Nordeste 25 Nordeste 0 -- -- 74
2020-01-19 19:00:00 6.4 17 Nordeste 32 Nordeste 0 -- -- 73
2020-01-19 18:00:00 6.9 13 Nordeste 34 Este 0 -- -- 70
2020-01-19 17:00:00 8.8 16 Este 37 Nordeste 0 -- -- 65
2020-01-19 16:00:00 8.6 24 Nordeste 42 Nordeste 0 -- -- 68
2020-01-19 15:00:00 8.9 19 Nordeste 36 Nordeste 0 -- -- 71
2020-01-19 14:00:00 9.9 17 Nordeste 33 Nordeste 0 -- -- 72
2020-01-19 13:00:00 8.7 17 Nordeste 33 Nordeste 0 -- -- 74
2020-01-19 12:00:00 8.3 12 Nordeste 32 Este 0.6 -- -- 82
2020-01-19 11:00:00 8 14 Nordeste 30 Nordeste 0 -- -- 80
2020-01-19 10:00:00 7.4 9 Nordeste 23 Nordeste 0.4 -- -- 84
2020-01-19 09:00:00 6.9 9 Norte 17 Nordeste 0 -- -- 84
2020-01-19 08:00:00 7 10 Nordeste 19 Nordeste 0 -- -- 83
2020-01-19 07:00:00 7 8 Nordeste 24 Nordeste 0 -- -- 84
2020-01-19 06:00:00 7.5 12 Norte 26 Norte 0.4 -- -- 91
2020-01-19 05:00:00 7.6 7 Nordeste 34 Norte 1 -- -- 91
2020-01-19 04:00:00 7.8 17 Nordeste 35 Este 1 -- -- 94
2020-01-19 03:00:00 8.3 18 Nordeste 36 Norte 2.8 -- -- 97
2020-01-19 02:00:00 7.7 3 Nordeste 10 Sudoeste 0.6 -- -- 93
2020-01-19 01:00:00 8.2 8 Sudoeste 28 Oeste 0 -- -- 85
2020-01-19 00:00:00 7.9 21 Sudoeste 33 Oeste 0 -- -- 85
2020-01-18 23:00:00 7.7 10 Sudoeste 21 Oeste 0.2 -- -- 87
2020-01-18 22:00:00 7.8 9 Sudoeste 17 Sudoeste 0 -- -- 91
2020-01-18 21:00:00 8 5 Sudoeste 28 Sudoeste 0 -- -- 88
2020-01-18 20:00:00 7.8 18 Oeste 23 Oeste 0 -- -- 87
2020-01-18 19:00:00 7.1 5 Sudoeste 30 Oeste 1.6 -- -- 93
2020-01-18 18:00:00 8.1 10 Sudoeste 38 Oeste 2.4 -- -- 88
2020-01-18 17:00:00 10.4 13 Oeste 35 Sudoeste 0 -- -- 69
2020-01-18 16:00:00 10.4 13 Sudoeste 32 Oeste 0.2 -- -- 75
2020-01-18 15:00:00 9.3 13 Sudoeste 36 Oeste 9.2 -- -- 87
2020-01-18 14:00:00 9.9 4 Norte 9 Nordeste 0.4 -- -- 91
2020-01-18 13:00:00 9.9 3 Sudoeste 6 Sudoeste 0.2 -- -- 84
2020-01-18 12:00:00 9.3 3 Sudeste 5 Nordeste 0 -- -- 84
2020-01-18 11:00:00 8.8 3 Sur 8 Sur 0 -- -- 81
2020-01-18 10:00:00 6.5 5 Nordeste 8 Nordeste 0 -- -- 92
2020-01-18 09:00:00 5.3 3 Sudoeste 6 Oeste 0.2 -- -- 96
2020-01-18 08:00:00 5.3 3 Oeste 8 Oeste 0 -- -- 94
2020-01-18 07:00:00 5.3 0 Calma 3 Oeste 0 -- -- 93
2020-01-18 06:00:00 5.3 2 Nordeste 4 Sur 0 -- -- 94
2020-01-18 05:00:00 5.3 2 Oeste 5 Sudoeste 0 -- -- 93
2020-01-18 04:00:00 5.2 0 Calma 5 Norte 0 -- -- 93
2020-01-18 03:00:00 5.4 2 Oeste 8 Este 0 -- -- 92
2020-01-18 02:00:00 5.5 0 Calma 3 Oeste 0 -- -- 89
2020-01-18 01:00:00 5.7 3 Nordeste 7 Nordeste 0 -- -- 89
2020-01-18 00:00:00 5.6 3 Oeste 7 Oeste 0 -- -- 89
2020-01-17 23:00:00 5.8 2 Oeste 6 Nordeste 0 -- -- 87
2020-01-17 22:00:00 5.9 3 Norte 6 Oeste 0 -- -- 85
2020-01-17 21:00:00 6.1 4 Nordeste 10 Oeste 0 -- -- 81
2020-01-17 20:00:00 6.7 2 Sudeste 8 Noroeste 0 -- -- 79
2020-01-17 19:00:00 8 9 Oeste 15 Oeste 0 -- -- 74
2020-01-17 18:00:00 9.6 5 Oeste 9 Oeste 0 -- -- 62
2020-01-17 17:00:00 10.9 6 Sudoeste 15 Oeste 0 -- -- 59
2020-01-17 16:00:00 11.4 9 Oeste 32 Oeste 0 -- -- 58
2020-01-17 15:00:00 12.7 15 Sudoeste 35 Sudoeste 0 -- -- 52
2020-01-17 14:00:00 11.7 17 Sudoeste 43 Sudoeste 0.2 -- -- 55
2020-01-17 13:00:00 10.6 17 Sudoeste 33 Sur 0 -- -- 61
2020-01-17 12:00:00 9.6 14 Sudoeste 31 Sudoeste 0 -- -- 67
2020-01-17 11:00:00 9.2 16 Oeste 31 Oeste 0 -- -- 68
2020-01-17 10:00:00 7.9 15 Oeste 29 Oeste 0 -- -- 73
2020-01-17 09:00:00 7.1 15 Sudoeste 42 Oeste 0.6 -- -- 81
2020-01-17 08:00:00 8.7 20 Oeste 39 Noroeste 0 -- -- 68
2020-01-17 07:00:00 8.7 17 Oeste 39 Noroeste 0 -- -- 72
2020-01-17 06:00:00 8.2 12 Oeste 37 Oeste 0.6 -- -- 82
2020-01-17 05:00:00 9.2 9 Sudoeste 28 Oeste 0.2 -- -- 75
2020-01-17 04:00:00 9.1 19 Oeste 43 Oeste 0.6 -- -- 74
2020-01-17 03:00:00 -- 14 Oeste 29 Oeste 0.2 -- -- --
2020-01-17 02:00:00 10.1 6 Sudoeste 18 Sudoeste 0 -- -- 75
2020-01-17 01:00:00 9.9 6 Sudoeste 17 Sudoeste 0 -- -- 73
2020-01-17 00:00:00 8.9 6 Oeste 12 Oeste 0 -- -- 83
2020-01-16 23:00:00 8.8 5 Oeste 18 Oeste 0 -- -- 85
2020-01-16 22:00:00 9.2 6 Noroeste 29 Oeste 0 -- -- 83
2020-01-16 21:00:00 9.5 15 Oeste 29 Sudoeste 0.2 -- -- 83
2020-01-16 20:00:00 10.3 10 Sudoeste 51 Oeste 2 -- -- 87
2020-01-16 19:00:00 13.1 10 Oeste 26 Noroeste 0.2 -- -- 74
2020-01-16 18:00:00 16.1 6 Sudeste 34 Sudoeste 0 -- -- 53
2020-01-16 17:00:00 16.9 16 Sudoeste 37 Sudoeste 0 -- -- 47
2020-01-16 16:00:00 17.9 15 Sudoeste 44 Oeste 0 -- -- 48
2020-01-16 15:00:00 18.4 14 Sudoeste 41 Sudoeste 0 -- -- 47
2020-01-16 14:00:00 19.2 26 Sudoeste 49 Sudoeste 0 -- -- 43
2020-01-16 13:00:00 19.9 12 Sudoeste 35 Sudoeste 0 -- -- 44
2020-01-16 12:00:00 18.6 9 Sudoeste 22 Sudoeste 0 -- -- 48
2020-01-16 11:00:00 16.7 6 Sudoeste 23 Sudoeste 0 -- -- 55
2020-01-16 10:00:00 11.3 4 Nordeste 9 Sur 0 -- -- 80
2020-01-16 09:00:00 10 4 Norte 10 Sudoeste 0 -- -- 86
2020-01-16 08:00:00 9.6 4 Este 6 Este 0 -- -- 86
2020-01-16 07:00:00 8 0 Calma 10 Sur 0 -- -- 91
2020-01-16 06:00:00 7.3 2 Norte 6 Norte 0 -- -- 95
2020-01-16 05:00:00 6.5 2 Norte 8 Oeste 0 -- -- 98
2020-01-16 04:00:00 6.2 0 Calma 8 Norte 0 -- -- 99
2020-01-16 03:00:00 6.1 2 Este 6 Nordeste 0 -- -- 99
2020-01-16 02:00:00 6.3 0 Calma 4 Sudoeste 0 -- -- 99
2020-01-16 01:00:00 6.3 0 Calma 5 Oeste 0 -- -- 99
2020-01-16 00:00:00 6.3 0 Calma 5 Nordeste 0 -- -- 99
2020-01-15 23:00:00 6.6 0 Calma 4 Oeste 0 -- -- 99
2020-01-15 22:00:00 6.8 0 Calma 3 Nordeste 0 -- -- 96
2020-01-15 21:00:00 7.7 0 Calma 4 Noroeste 0 -- -- 94
2020-01-15 20:00:00 8.5 3 Oeste 5 Oeste 0 -- -- 92
2020-01-15 19:00:00 8.9 0 Calma 8 Norte 0 -- -- 89
2020-01-15 18:00:00 10.4 5 Norte 14 Nordeste 0 -- -- 85
2020-01-15 17:00:00 11.1 9 Nordeste 14 Nordeste 0 -- -- 85
2020-01-15 16:00:00 11.9 8 Nordeste 18 Nordeste 0 -- -- 81
2020-01-15 15:00:00 12.8 12 Nordeste 16 Nordeste 0 -- -- 79
2020-01-15 14:00:00 15 10 Nordeste 17 Oeste 0 -- -- 73
2020-01-15 13:00:00 13.8 4 Noroeste 13 Noroeste 0 -- -- 76
2020-01-15 12:00:00 12.3 6 Sudoeste 23 Noroeste 0 -- -- 79
2020-01-15 11:00:00 11.6 12 Oeste 21 Oeste 0 -- -- 78
2020-01-15 10:00:00 10.9 13 Sudoeste 29 Sudoeste 0.4 -- -- 79
2020-01-15 09:00:00 11.2 12 Sudoeste 37 Oeste 1.6 -- -- 80
2020-01-15 08:00:00 13.9 9 Sudoeste 44 Oeste 0 -- -- 63
2020-01-15 07:00:00 14.4 19 Sudoeste 47 Sudoeste 0 -- -- 60
2020-01-15 06:00:00 15.2 9 Sudoeste 27 Sudoeste 0 -- -- 49
2020-01-15 05:00:00 14.9 9 Sudoeste 33 Oeste 0 -- -- 52
2020-01-15 04:00:00 14 6 Oeste 24 Este 0 -- -- 55
2020-01-15 03:00:00 15 8 Sudoeste 37 Oeste 0 -- -- 52
2020-01-15 02:00:00 14.8 14 Sudoeste 27 Sudoeste 0 -- -- 53
2020-01-15 01:00:00 13.7 3 Oeste 31 Oeste 0 -- -- 51
2020-01-15 00:00:00 14 8 Sudoeste 25 Sudoeste 0 -- -- 49
2020-01-14 23:00:00 14 9 Sudoeste 31 Sur 0 -- -- 50
2020-01-14 22:00:00 13.7 9 Sudoeste 23 Sudeste 0 -- -- 51
2020-01-14 21:00:00 14 7 Sudoeste 23 Sur 0 -- -- 50
2020-01-14 20:00:00 14.3 8 Sudoeste 36 Sudoeste 0 -- -- 48
2020-01-14 19:00:00 14.6 18 Sudoeste 39 Oeste 0 -- -- 51
2020-01-14 18:00:00 15.2 15 Sudoeste 28 Sur 0 -- -- 49
2020-01-14 17:00:00 16.7 19 Sudoeste 42 Sudoeste 0 -- -- 42
2020-01-14 16:00:00 16.8 25 Sudoeste 57 Sudoeste 0 -- -- 42
2020-01-14 15:00:00 15.6 29 Sudoeste 53 Sudoeste 0 -- -- 43
2020-01-14 14:00:00 15.7 23 Sudoeste 46 Sudoeste 0 -- -- 42
2020-01-14 13:00:00 13.8 3 Nordeste 13 Noroeste 0 -- -- 57
2020-01-14 12:00:00 14 3 Sur 38 Sudoeste 0 -- -- 56
2020-01-14 11:00:00 14.5 24 Sudoeste 43 Sudoeste 0 -- -- 50
2020-01-14 10:00:00 14.6 23 Oeste 46 Oeste 0 -- -- 53
2020-01-14 09:00:00 14.4 22 Sudoeste 37 Sudoeste 0 -- -- 54
2020-01-14 08:00:00 14.5 24 Sudoeste 45 Oeste 0.2 -- -- 55
2020-01-14 07:00:00 14.1 21 Sudoeste 50 Sudoeste 0 -- -- 60
2020-01-14 06:00:00 14.7 30 Oeste 52 Oeste 0 -- -- 52
2020-01-14 05:00:00 14.5 26 Sudoeste 57 Sudoeste 0 -- -- 52
2020-01-14 04:00:00 14.5 28 Sudoeste 56 Sudoeste 0 -- -- 51
2020-01-14 03:00:00 14.5 33 Sudoeste 65 Sur 0 -- -- 49
2020-01-14 02:00:00 14.5 32 Sudoeste 58 Sur 0 -- -- 48
2020-01-14 01:00:00 14.2 21 Sudoeste 47 Sudoeste 0 -- -- 46
2020-01-14 00:00:00 14.2 18 Oeste 53 Oeste 0 -- -- 48
2020-01-13 23:00:00 14.3 23 Sudoeste 44 Oeste 0 -- -- 46
2020-01-13 22:00:00 14.4 19 Sudoeste 40 Oeste 0 -- -- 46
2020-01-13 21:00:00 14.7 18 Sudoeste 36 Sudoeste 0 -- -- 46
2020-01-13 20:00:00 14.5 14 Sudoeste 30 Sudoeste 0 -- -- 46
2020-01-13 19:00:00 14.8 13 Sudoeste 31 Sudoeste 0 -- -- 44
2020-01-13 18:00:00 14.6 9 Oeste 41 Sudoeste 0 -- -- 46
2020-01-13 17:00:00 16.2 9 Oeste 34 Sur 0 -- -- 44
2020-01-13 16:00:00 15.7 12 Oeste 25 Oeste 0 -- -- 46
2020-01-13 15:00:00 16.4 6 Sudoeste 29 Sur 0 -- -- 47
2020-01-13 14:00:00 16.7 14 Sudoeste 26 Sudoeste 0 -- -- 47
2020-01-13 13:00:00 14.3 9 Sudoeste 17 Sudoeste 0 -- -- 62
2020-01-13 12:00:00 10.2 3 Sudoeste 7 Sur 0 -- -- 82
2020-01-13 11:00:00 7.9 3 Sudoeste 6 Sudoeste 0 -- -- 87
2020-01-13 10:00:00 4 2 Este 6 Oeste 0 -- -- 94
2020-01-13 09:00:00 4.3 2 Norte 4 Este 0 -- -- 93
2020-01-13 08:00:00 4.7 3 Sudoeste 6 Oeste 0 -- -- 92
2020-01-13 07:00:00 4.9 0 Calma 3 Oeste 0 -- -- 91
2020-01-13 06:00:00 5.5 0 Calma 4 Nordeste 0 -- -- 91
2020-01-13 05:00:00 5.3 3 Nordeste 7 Este 0 -- -- 90
2020-01-13 04:00:00 6.5 5 Sudoeste 11 Sudoeste 0 -- -- 84
2020-01-13 03:00:00 6.7 0 Calma 7 Sudoeste 0 -- -- 84
2020-01-13 02:00:00 6.8 0 Calma 7 Noroeste 0 -- -- 88
2020-01-13 01:00:00 6.4 2 Norte 6 Oeste 0 -- -- 91
2020-01-13 00:00:00 6 0 Calma 4 Noroeste 0 -- -- 89
2020-01-12 23:00:00 5.4 0 Calma 3 Oeste 0 -- -- 90
2020-01-12 22:00:00 5.9 0 Calma 4 Oeste 0 -- -- 88
2020-01-12 21:00:00 6.2 2 Este 5 Sur 0 -- -- 84
2020-01-12 20:00:00 7.5 0 Calma 5 Norte 0 -- -- 80
2020-01-12 19:00:00 8.8 0 Calma 3 Nordeste 0 -- -- 81
2020-01-12 18:00:00 11.1 0 Calma 5 Norte 0 -- -- 73
2020-01-12 17:00:00 15.1 2 Sur 9 Sudeste 0 -- -- 57
2020-01-12 16:00:00 15.5 6 Sur 11 Sur 0 -- -- 51
2020-01-12 15:00:00 15.4 3 Sur 6 Sudoeste 0 -- -- 51
2020-01-12 14:00:00 13.8 3 Sur 7 Sur 0 -- -- 52
2020-01-12 13:00:00 11.5 3 Sur 12 Sudoeste 0 -- -- 52
2020-01-12 12:00:00 9.4 4 Sudoeste 9 Sudoeste 0 -- -- 68
2020-01-12 11:00:00 6.8 5 Oeste 10 Sudoeste 0 -- -- 62
2020-01-12 10:00:00 3.6 5 Oeste 12 Oeste 0 -- -- 73
2020-01-12 09:00:00 2.4 0 Calma 7 Sudoeste 0 -- -- 79
2020-01-12 08:00:00 1.9 0 Calma 11 Sudoeste 0 -- -- 84
2020-01-12 07:00:00 1.6 0 Calma 5 Oeste 0 -- -- 89
2020-01-12 06:00:00 2.1 2 Sudoeste 6 Oeste 0 -- -- 88
2020-01-12 05:00:00 1.9 2 Oeste 5 Oeste 0 -- -- 91
2020-01-12 04:00:00 1.8 2 Oeste 5 Sudoeste 0 -- -- 95
2020-01-12 03:00:00 1.7 3 Sudoeste 6 Nordeste 0 -- -- 96
2020-01-12 02:00:00 2.4 2 Nordeste 4 Nordeste 0 -- -- 94
2020-01-12 01:00:00 3 0 Calma 4 Sudeste 0 -- -- 93
2020-01-12 00:00:00 3 0 Calma 5 Este 0 -- -- 95
2020-01-11 23:00:00 3.5 0 Calma 3 Oeste 0 -- -- 92
2020-01-11 22:00:00 4.1 0 Calma 2 Sudeste 0 -- -- 93
2020-01-11 21:00:00 4.8 0 Calma 3 Sudoeste 0 -- -- 90
2020-01-11 20:00:00 5.8 0 Calma 4 Nordeste 0 -- -- 88
2020-01-11 19:00:00 7 0 Calma 5 Norte 0 -- -- 85
2020-01-11 18:00:00 9.4 0 Calma 5 Sudeste 0 -- -- 72
2020-01-11 17:00:00 13.1 2 Sudeste 4 Sur 0 -- -- 65
2020-01-11 16:00:00 13.5 3 Sur 6 Sur 0 -- -- 63
2020-01-11 15:00:00 12.6 3 Sudoeste 6 Sudoeste 0 -- -- 65
2020-01-11 14:00:00 10.2 3 Sudoeste 6 Sudoeste 0 -- -- 69
2020-01-11 13:00:00 8.1 0 Calma 6 Sudoeste 0 -- -- 78
2020-01-11 12:00:00 8.1 3 Sudoeste 8 Sur 0 -- -- 76
2020-01-11 11:00:00 5.8 3 Sur 6 Sudoeste 0 -- -- 84
2020-01-11 10:00:00 3 0 Calma 7 Sudoeste 0 -- -- 96
2020-01-11 09:00:00 1.6 2 Oeste 7 Noroeste 0 -- -- 97
2020-01-11 08:00:00 1.7 0 Calma 6 Noroeste 0 -- -- 98
2020-01-11 07:00:00 1.7 0 Calma 6 Noroeste 0 -- -- 98
2020-01-11 06:00:00 2 0 Calma 5 Oeste 0 -- -- 98
2020-01-11 05:00:00 2.1 3 Oeste 4 Sudoeste 0 -- -- 99
2020-01-11 04:00:00 2.2 0 Calma 3 Noroeste 0 -- -- 100
2020-01-11 03:00:00 2.3 0 Calma 3 Este 0 -- -- 99
2020-01-11 02:00:00 2.5 0 Calma 4 Este 0 -- -- 99
2020-01-11 01:00:00 3.1 0 Calma 3 Este 0 -- -- 99
2020-01-11 00:00:00 3.7 0 Calma 5 Oeste 0 -- -- 98
2020-01-10 23:00:00 4 2 Nordeste 5 Oeste 0 -- -- 99
2020-01-10 22:00:00 4.3 3 Oeste 8 Oeste 0 -- -- 99
2020-01-10 21:00:00 4.6 0 Calma 5 Oeste 0 -- -- 98
2020-01-10 20:00:00 5.5 3 Nordeste 5 Nordeste 0 -- -- 97
2020-01-10 19:00:00 6.7 0 Calma 4 Norte 0 -- -- 95
2020-01-10 18:00:00 7.7 0 Calma 7 Norte 0 -- -- 91
2020-01-10 17:00:00 9.7 4 Nordeste 14 Nordeste 0 -- -- 85
2020-01-10 16:00:00 11.4 6 Sudeste 14 Este 0 -- -- 77
2020-01-10 15:00:00 10.2 2 Este 16 Norte 0 -- -- 76
2020-01-10 14:00:00 10 6 Sudoeste 9 Oeste 0.4 -- -- 85
2020-01-10 13:00:00 10.5 4 Sur 11 Sudoeste 0 -- -- 80
2020-01-10 12:00:00 10 5 Sur 10 Sudoeste 0 -- -- 83
2020-01-10 11:00:00 8.6 3 Sudoeste 9 Sudoeste 0 -- -- 90
2020-01-10 10:00:00 6.3 4 Sudoeste 9 Sudoeste 0 -- -- 97
2020-01-10 09:00:00 6.1 0 Calma 13 Sur 0.8 -- -- 97
2020-01-10 08:00:00 6 0 Calma 5 Norte 0.4 -- -- 98
2020-01-10 07:00:00 6.2 3 Sudeste 8 Norte 1.4 -- -- 96
2020-01-10 06:00:00 6.1 2 Noroeste 15 Oeste 0.2 -- -- 91
2020-01-10 05:00:00 6.9 9 Oeste 15 Sudoeste 0.2 -- -- 89
2020-01-10 04:00:00 7.7 12 Sudoeste 23 Sudoeste 0.2 -- -- 81
2020-01-10 03:00:00 7.7 16 Sudoeste 32 Sudoeste 0 -- -- 76
2020-01-10 02:00:00 7.4 13 Sudoeste 24 Oeste 0 -- -- 81
2020-01-10 01:00:00 7.1 7 Sudoeste 15 Sudoeste 0.2 -- -- 88
2020-01-10 00:00:00 7.4 8 Sudoeste 18 Sudoeste 0.6 -- -- 89
2020-01-09 23:00:00 8.6 9 Sudoeste 17 Oeste 0 -- -- 79
2020-01-09 22:00:00 8.5 7 Sudoeste 23 Oeste 0.2 -- -- 79
2020-01-09 21:00:00 9.4 6 Oeste 26 Sur 0 -- -- 68
2020-01-09 20:00:00 9.2 10 Sudoeste 22 Sudoeste 0 -- -- 68
2020-01-09 19:00:00 9.4 10 Sudoeste 22 Oeste 0 -- -- 70
2020-01-09 18:00:00 10.2 12 Oeste 22 Oeste 0 -- -- 70
2020-01-09 17:00:00 11.3 12 Oeste 40 Oeste 0 -- -- 73
2020-01-09 16:00:00 11 17 Sudoeste 43 Noroeste 0.4 -- -- 80
2020-01-09 15:00:00 11.3 16 Oeste 44 Sudoeste 2.6 -- -- 87
2020-01-09 14:00:00 17.9 23 Oeste 50 Oeste 0 -- -- 53
2020-01-09 13:00:00 20.2 15 Oeste 64 Oeste 0 -- -- 51
2020-01-09 12:00:00 18.8 22 Sudoeste 46 Oeste 0 -- -- 56
2020-01-09 11:00:00 17.5 13 Sudoeste 35 Sudoeste 0 -- -- 59
2020-01-09 10:00:00 16.3 24 Sudoeste 45 Sudoeste 0 -- -- 62
2020-01-09 09:00:00 14.8 14 Sudoeste 35 Sudoeste 0 -- -- 67
2020-01-09 08:00:00 12.7 6 Sudoeste 20 Sudoeste 0 -- -- 78
2020-01-09 07:00:00 13.3 5 Este 17 Sudoeste 0 -- -- 76
2020-01-09 06:00:00 13.2 2 Sudoeste 14 Oeste 0 -- -- 78
2020-01-09 05:00:00 12.7 10 Sudoeste 17 Sudoeste 0 -- -- 80
2020-01-09 04:00:00 10.5 3 Sur 12 Oeste 0 -- -- 86
2020-01-09 03:00:00 11 2 Noroeste 11 Sudoeste 0 -- -- 83
2020-01-09 02:00:00 9.5 2 Norte 6 Norte 0 -- -- 87
2020-01-09 01:00:00 8.5 0 Calma 5 Nordeste 0 -- -- 84
2020-01-09 00:00:00 8.5 2 Este 5 Oeste 0 -- -- 82
2020-01-08 23:00:00 9.5 2 Sudeste 5 Sudoeste 0 -- -- 81
2020-01-08 22:00:00 9.5 0 Calma 3 Nordeste 0 -- -- 79
2020-01-08 21:00:00 9.5 0 Calma 4 Sudoeste 0 -- -- 75
2020-01-08 20:00:00 10.1 0 Calma 3 Sudoeste 0 -- -- 72
2020-01-08 19:00:00 10.4 0 Calma 3 Nordeste 0 -- -- 68
2020-01-08 18:00:00 11.6 0 Calma 3 Noroeste 0 -- -- 66
2020-01-08 17:00:00 13.4 0 Calma 2 Nordeste 0 -- -- 63
2020-01-08 16:00:00 15.8 0 Calma 3 Sur 0 -- -- 61
2020-01-08 15:00:00 16.5 0 Calma 5 Sur 0 -- -- 49
2020-01-08 14:00:00 16.7 3 Sur 6 Sudeste 0 -- -- 50
2020-01-08 13:00:00 15 3 Sur 6 Sur 0 -- -- 53
2020-01-08 12:00:00 12.2 2 Sudoeste 4 Sudoeste 0 -- -- 57
2020-01-08 11:00:00 10.1 0 Calma 8 Oeste 0 -- -- 64
2020-01-08 10:00:00 9.4 2 Sudoeste 6 Sudoeste 0 -- -- 64
2020-01-08 09:00:00 7.8 3 Oeste 6 Oeste 0 -- -- 69
2020-01-08 08:00:00 7.7 0 Calma 8 Oeste 0 -- -- 76
2020-01-08 07:00:00 7.1 0 Calma 4 Oeste 0 -- -- 76
2020-01-08 06:00:00 7.7 3 Oeste 5 Oeste 0 -- -- 70
2020-01-08 05:00:00 8.3 2 Oeste 5 Oeste 0 -- -- 71
2020-01-08 04:00:00 8.7 0 Calma 8 Oeste 0 -- -- 69
2020-01-08 03:00:00 8.1 0 Calma 5 Oeste 0 -- -- 73
2020-01-08 02:00:00 7.9 4 Oeste 6 Oeste 0 -- -- 70
2020-01-08 01:00:00 7.5 4 Oeste 6 Sudoeste 0 -- -- 71
2020-01-08 00:00:00 7.9 0 Calma 3 Oeste 0 -- -- 73
2020-01-07 23:00:00 7.7 0 Calma 6 Oeste 0 -- -- 74
2020-01-07 22:00:00 6.8 0 Calma 4 Este 0 -- -- 81
2020-01-07 21:00:00 6.9 0 Calma 4 Noroeste 0 -- -- 79
2020-01-07 20:00:00 7.8 0 Calma 7 Oeste 0 -- -- 76
2020-01-07 19:00:00 8.5 0 Calma 4 Oeste 0 -- -- 76
2020-01-07 18:00:00 10.2 0 Calma 4 Este 0 -- -- 73
2020-01-07 17:00:00 13.8 2 Este 4 Sudeste 0 -- -- 63
2020-01-07 16:00:00 15 3 Sur 6 Sudeste 0 -- -- 49
2020-01-07 15:00:00 14.6 3 Sudeste 5 Sur 0 -- -- 50
2020-01-07 14:00:00 13.2 3 Sudeste 6 Sur 0 -- -- 56
2020-01-07 13:00:00 11.1 3 Sudeste 6 Sur 0 -- -- 56
2020-01-07 12:00:00 8.5 2 Sudeste 5 Sur 0 -- -- 67
2020-01-07 11:00:00 6.1 4 Sudoeste 6 Sudoeste 0 -- -- 77
2020-01-07 10:00:00 3.4 3 Sudoeste 6 Oeste 0 -- -- 81
2020-01-07 09:00:00 3 4 Oeste 9 Sudoeste 0 -- -- 74
2020-01-07 08:00:00 2.8 2 Sudoeste 8 Noroeste 0 -- -- 77
2020-01-07 07:00:00 3.1 2 Oeste 9 Sudoeste 0 -- -- 77
2020-01-07 06:00:00 3.3 4 Oeste 10 Noroeste 0 -- -- 78
2020-01-07 05:00:00 2.9 4 Sudoeste 9 Oeste 0 -- -- 83
2020-01-07 04:00:00 2.9 0 Calma 6 Oeste 0 -- -- 84
2020-01-07 03:00:00 3.1 2 Oeste 6 Oeste 0 -- -- 87
2020-01-07 02:00:00 3.3 0 Calma 9 Oeste 0 -- -- 89
2020-01-07 01:00:00 3.7 0 Calma 7 Oeste 0 -- -- 88
2020-01-07 00:00:00 3.5 0 Calma 6 Oeste 0 -- -- 92
2020-01-06 23:00:00 3.7 0 Calma 4 Oeste 0 -- -- 92
2020-01-06 22:00:00 4 2 Nordeste 4 Nordeste 0 -- -- 94
2020-01-06 21:00:00 4.7 2 Noroeste 9 Sudoeste 0 -- -- 92
2020-01-06 20:00:00 5.7 2 Nordeste 11 Nordeste 0 -- -- 89
2020-01-06 19:00:00 6.7 5 Oeste 7 Sudoeste 0 -- -- 86
2020-01-06 18:00:00 8.2 2 Nordeste 8 Oeste 0 -- -- 80
2020-01-06 17:00:00 11.5 4 Nordeste 9 Norte 0 -- -- 71
2020-01-06 16:00:00 12.5 2 Sudeste 8 Sudoeste 0 -- -- 64
2020-01-06 15:00:00 10.6 3 Oeste 8 Oeste 0 -- -- 71
2020-01-06 14:00:00 9 3 Sur 7 Sudeste 0 -- -- 79
2020-01-06 13:00:00 7.9 3 Sur 5 Sur 0 -- -- 81
2020-01-06 12:00:00 7.3 2 Sudeste 6 Oeste 0 -- -- 82
2020-01-06 11:00:00 4.9 3 Sudoeste 8 Sudoeste 0 -- -- 85
2020-01-06 10:00:00 2.1 3 Oeste 6 Nordeste 0 -- -- 95